createdAt,value
2023-08-24T00:00:23.383Z,62.20
2023-08-24T00:02:51.027Z,62.10
2023-08-24T00:05:17.970Z,62.30
2023-08-24T00:07:44.935Z,62.70
2023-08-24T00:10:12.195Z,62.70
2023-08-24T00:12:40.393Z,62.50
2023-08-24T00:15:10.203Z,62.60
2023-08-24T00:17:39.086Z,62.80
2023-08-24T00:20:11.652Z,63.00
2023-08-24T00:22:40.613Z,62.90
2023-08-24T00:25:08.965Z,63.20
2023-08-24T00:27:36.771Z,63.20
2023-08-24T00:30:07.798Z,63.50
2023-08-24T00:32:36.070Z,63.60
2023-08-24T00:35:04.084Z,63.90
2023-08-24T00:37:31.677Z,64.20
2023-08-24T00:40:00.415Z,64.40
2023-08-24T00:42:27.261Z,64.60
2023-08-24T00:44:54.125Z,65.00
2023-08-24T00:47:21.261Z,65.50
2023-08-24T00:49:48.772Z,65.50
2023-08-24T00:52:15.866Z,65.30
2023-08-24T00:54:43.018Z,65.40
2023-08-24T00:57:11.338Z,65.50
2023-08-24T00:59:38.666Z,65.90
2023-08-24T01:02:05.659Z,66.10
2023-08-24T01:04:32.596Z,66.20
2023-08-24T01:06:59.759Z,66.00
2023-08-24T01:09:26.837Z,65.60
2023-08-24T01:12:29.228Z,65.30
2023-08-24T01:15:08.888Z,65.40
2023-08-24T01:17:39.193Z,65.30
2023-08-24T01:20:07.364Z,65.30
2023-08-24T01:22:42.097Z,65.10
2023-08-24T01:25:14.451Z,65.40
2023-08-24T01:27:42.233Z,65.30
2023-08-24T01:30:10.082Z,65.30
2023-08-24T01:32:38.043Z,65.30
2023-08-24T01:35:09.677Z,65.20
2023-08-24T01:37:39.416Z,65.60
2023-08-24T01:40:29.026Z,66.20
2023-08-24T01:43:06.763Z,66.30
2023-08-24T01:45:34.862Z,66.30
2023-08-24T01:48:04.194Z,67.20
2023-08-24T01:50:32.308Z,66.20
2023-08-24T01:52:59.673Z,66.10
2023-08-24T01:55:27.079Z,66.30
2023-08-24T01:57:56.644Z,66.20
2023-08-24T02:00:23.777Z,66.30
2023-08-24T02:02:50.628Z,66.40
2023-08-24T02:05:18.368Z,66.40
2023-08-24T02:07:51.921Z,66.60
2023-08-24T02:10:19.148Z,66.70
2023-08-24T02:12:46.018Z,67.00
2023-08-24T02:15:13.129Z,67.50
2023-08-24T02:17:40.044Z,68.80
2023-08-24T02:20:09.895Z,69.60
2023-08-24T02:22:36.845Z,69.60
2023-08-24T02:25:05.994Z,69.60
2023-08-24T02:27:33.977Z,69.20
2023-08-24T02:30:01.567Z,68.40
2023-08-24T02:32:28.575Z,69.00
2023-08-24T02:34:55.539Z,68.10
2023-08-24T02:37:22.538Z,69.10
2023-08-24T02:39:49.636Z,69.80
2023-08-24T02:42:17.091Z,70.00
2023-08-24T02:44:44.368Z,70.40
2023-08-24T02:47:12.457Z,71.00
2023-08-24T02:49:39.875Z,71.60
2023-08-24T02:52:06.842Z,72.20
2023-08-24T02:54:34.012Z,72.70
2023-08-24T02:57:01.332Z,73.10
2023-08-24T02:59:28.281Z,73.70
2023-08-24T03:01:55.488Z,73.80
2023-08-24T03:04:23.597Z,74.10
2023-08-24T03:06:52.837Z,74.40
2023-08-24T03:09:19.949Z,74.70
2023-08-24T03:11:46.899Z,75.00
2023-08-24T03:14:13.965Z,75.10
2023-08-24T03:16:41.097Z,75.10
2023-08-24T03:19:08.452Z,75.00
2023-08-24T03:21:35.492Z,75.10
2023-08-24T03:24:05.480Z,75.40
2023-08-24T03:26:32.339Z,75.40
2023-08-24T03:28:59.201Z,75.50
2023-08-24T03:31:27.529Z,75.00
2023-08-24T03:33:55.074Z,74.20
2023-08-24T03:36:22.135Z,74.00
2023-08-24T03:38:49.177Z,74.00
2023-08-24T03:41:16.215Z,74.10
2023-08-24T03:43:43.124Z,74.30
2023-08-24T03:46:10.987Z,74.40
2023-08-24T03:48:42.001Z,74.60
2023-08-24T03:51:08.887Z,75.00
2023-08-24T03:53:37.705Z,74.80
2023-08-24T03:56:04.775Z,74.60
2023-08-24T03:58:32.620Z,74.40
2023-08-24T04:01:00.510Z,74.50
2023-08-24T04:03:27.844Z,74.80
2023-08-24T04:05:54.769Z,74.70
2023-08-24T04:08:21.859Z,74.70
2023-08-24T04:10:49.721Z,74.60
2023-08-24T04:13:16.590Z,74.90
2023-08-24T04:15:44.241Z,75.20
2023-08-24T04:18:12.247Z,75.20
2023-08-24T04:20:39.193Z,74.70
2023-08-24T04:23:07.934Z,74.30
2023-08-24T04:25:35.005Z,73.90
2023-08-24T04:28:01.868Z,73.70
2023-08-24T04:30:28.946Z,73.90
2023-08-24T04:32:55.903Z,74.20
2023-08-24T04:35:22.726Z,73.70
2023-08-24T04:37:50.289Z,73.30
2023-08-24T04:40:17.456Z,72.90
2023-08-24T04:42:44.262Z,72.60
2023-08-24T04:45:11.216Z,72.30
2023-08-24T04:47:38.078Z,72.20
2023-08-24T04:50:06.092Z,72.20
2023-08-24T04:52:33.160Z,72.40
2023-08-24T04:55:00.116Z,72.10
2023-08-24T04:57:27.134Z,72.50
2023-08-24T04:59:54.174Z,72.30
2023-08-24T05:02:21.050Z,72.20
2023-08-24T05:04:49.969Z,72.50
2023-08-24T05:07:17.194Z,72.50
2023-08-24T05:09:44.033Z,72.50
2023-08-24T05:12:10.918Z,72.50
2023-08-24T05:14:37.978Z,72.50
2023-08-24T05:17:06.075Z,72.80
2023-08-24T05:19:32.926Z,72.60
2023-08-24T05:21:59.818Z,72.40
2023-08-24T05:24:26.639Z,72.30
2023-08-24T05:26:53.517Z,72.50
2023-08-24T05:29:20.474Z,72.50
2023-08-24T05:31:47.563Z,72.20
2023-08-24T05:34:14.438Z,72.70
2023-08-24T05:36:41.514Z,72.80
2023-08-24T05:39:08.922Z,73.10
2023-08-24T05:41:37.910Z,73.50
2023-08-24T05:44:05.062Z,73.80
2023-08-24T05:46:32.024Z,74.00
2023-08-24T05:49:00.659Z,74.70
2023-08-24T05:51:27.765Z,74.50
2023-08-24T05:53:56.684Z,74.70
2023-08-24T05:56:23.755Z,74.80
2023-08-24T05:58:51.165Z,75.20
2023-08-24T06:01:18.289Z,75.40
2023-08-24T06:03:45.207Z,75.50
2023-08-24T06:06:12.466Z,75.40
2023-08-24T06:08:39.524Z,75.70
2023-08-24T06:11:06.726Z,75.50
2023-08-24T06:13:34.015Z,75.30
2023-08-24T06:16:01.208Z,74.50
2023-08-24T06:18:28.250Z,73.70
2023-08-24T06:20:55.235Z,72.60
2023-08-24T06:23:22.628Z,71.60
2023-08-24T06:25:49.897Z,71.20
2023-08-24T06:28:16.750Z,71.30
2023-08-24T06:30:48.410Z,71.60
2023-08-24T06:33:18.078Z,72.00
2023-08-24T06:35:45.017Z,72.30
2023-08-24T06:38:12.612Z,72.00
2023-08-24T06:40:40.173Z,71.70
2023-08-24T06:43:07.007Z,71.30
2023-08-24T06:45:34.076Z,71.30
2023-08-24T06:48:01.919Z,72.20
2023-08-24T06:50:28.934Z,72.30
2023-08-24T06:52:55.753Z,72.00
2023-08-24T06:55:22.928Z,71.20
2023-08-24T06:57:52.356Z,70.80
2023-08-24T07:00:22.880Z,69.90
2023-08-24T07:02:51.722Z,69.40
2023-08-24T07:05:21.814Z,68.70
2023-08-24T07:07:51.296Z,68.00
2023-08-24T07:10:19.019Z,67.00
2023-08-24T07:12:46.699Z,66.90
2023-08-24T07:15:14.134Z,67.20
2023-08-24T07:17:41.228Z,66.90
2023-08-24T07:20:12.630Z,65.80
2023-08-24T07:22:39.451Z,65.10
2023-08-24T07:25:07.093Z,64.30
2023-08-24T07:27:34.904Z,63.40
2023-08-24T07:30:07.999Z,62.80
2023-08-24T07:32:42.906Z,62.20
2023-08-24T07:35:10.030Z,61.30
2023-08-24T07:37:36.954Z,60.80
2023-08-24T07:40:05.071Z,59.50
2023-08-24T07:42:32.204Z,60.10
2023-08-24T07:44:59.498Z,58.20
2023-08-24T07:47:26.496Z,57.20
2023-08-24T07:49:53.507Z,57.30
2023-08-24T07:52:22.539Z,57.40
2023-08-24T07:54:49.482Z,57.00
2023-08-24T07:57:16.349Z,56.00
2023-08-24T07:59:43.217Z,55.50
2023-08-24T08:02:10.772Z,55.50
2023-08-24T08:04:38.001Z,56.70
2023-08-24T08:07:05.116Z,56.30
2023-08-24T08:09:32.017Z,55.60
2023-08-24T08:11:59.066Z,55.30
2023-08-24T08:14:27.432Z,54.90
2023-08-24T08:16:54.271Z,55.00
2023-08-24T08:19:22.854Z,55.20
2023-08-24T08:21:50.547Z,55.10
2023-08-24T08:24:25.042Z,54.80
2023-08-24T08:26:53.934Z,56.20
2023-08-24T08:29:20.822Z,56.90
2023-08-24T08:31:47.857Z,57.00
2023-08-24T08:34:14.970Z,56.30
2023-08-24T08:36:42.634Z,56.40
2023-08-24T08:39:09.786Z,56.80
2023-08-24T08:41:43.602Z,57.30
2023-08-24T08:44:12.853Z,57.30
2023-08-24T08:46:41.470Z,58.10
2023-08-24T08:49:10.593Z,57.00
2023-08-24T08:51:38.751Z,57.10
2023-08-24T08:54:09.198Z,57.00
2023-08-24T08:56:36.694Z,58.00
2023-08-24T08:59:05.577Z,58.30
2023-08-24T09:01:32.750Z,58.40
2023-08-24T09:04:00.292Z,59.10
2023-08-24T09:06:27.377Z,58.30
2023-08-24T09:08:54.420Z,58.40
2023-08-24T09:11:22.516Z,60.10
2023-08-24T09:13:49.420Z,58.90
2023-08-24T09:16:19.256Z,58.20
2023-08-24T09:18:48.275Z,58.80
2023-08-24T09:21:16.838Z,59.40
2023-08-24T09:23:54.222Z,60.30
2023-08-24T09:26:31.538Z,59.70
2023-08-24T09:28:58.992Z,59.10
2023-08-24T09:31:39.800Z,58.30
2023-08-24T09:34:07.737Z,58.60
2023-08-24T09:36:35.647Z,57.80
2023-08-24T09:39:08.100Z,58.30
2023-08-24T09:41:52.197Z,58.30
2023-08-24T09:44:19.786Z,57.90
2023-08-24T09:46:46.749Z,57.50
2023-08-24T09:49:13.775Z,57.60
2023-08-24T09:51:42.774Z,58.70
2023-08-24T09:54:11.087Z,57.70
2023-08-24T09:56:40.242Z,57.90
2023-08-24T09:59:19.257Z,58.70
2023-08-24T10:01:51.459Z,58.70
2023-08-24T10:04:23.917Z,58.00
2023-08-24T10:06:56.312Z,57.70
2023-08-24T10:09:54.544Z,57.80
2023-08-24T10:12:25.937Z,58.20
2023-08-24T10:14:57.366Z,58.90
2023-08-24T10:17:24.873Z,59.20
2023-08-24T10:19:53.684Z,58.50
2023-08-24T10:22:21.464Z,60.00
2023-08-24T10:24:54.868Z,59.10
2023-08-24T10:27:27.776Z,59.80
2023-08-24T10:29:54.950Z,59.20
2023-08-24T10:32:23.521Z,59.40
2023-08-24T10:34:51.045Z,60.30
2023-08-24T10:37:18.038Z,60.80
2023-08-24T10:39:47.253Z,61.10
2023-08-24T10:42:15.468Z,61.80
2023-08-24T10:44:46.928Z,62.10
2023-08-24T10:47:21.777Z,62.70
2023-08-24T10:49:58.028Z,62.90
2023-08-24T10:52:40.344Z,63.50
2023-08-24T10:55:24.476Z,64.00
2023-08-24T10:57:59.323Z,64.20
2023-08-24T11:00:30.904Z,64.10
2023-08-24T11:03:00.982Z,63.90
2023-08-24T11:05:33.686Z,63.50
2023-08-24T11:08:05.410Z,63.70
2023-08-24T11:10:42.429Z,63.90
2023-08-24T11:13:15.669Z,64.50
2023-08-24T11:15:56.083Z,64.40
2023-08-24T11:18:28.326Z,64.40
2023-08-24T11:20:57.130Z,63.70
2023-08-24T11:23:26.220Z,63.50
2023-08-24T11:25:57.490Z,64.00
2023-08-24T11:28:26.475Z,64.00
2023-08-24T11:30:53.828Z,63.20
2023-08-24T11:33:36.560Z,63.10
2023-08-24T11:36:08.385Z,62.70
2023-08-24T11:38:42.693Z,62.50
2023-08-24T11:41:20.094Z,63.10
2023-08-24T11:43:52.208Z,63.80
2023-08-24T11:46:20.008Z,64.00
2023-08-24T11:48:47.490Z,63.30
2023-08-24T11:51:16.175Z,63.00
2023-08-24T11:53:45.953Z,63.40
2023-08-24T11:56:14.168Z,62.70
2023-08-24T11:58:48.462Z,62.10
2023-08-24T12:01:16.439Z,61.60
2023-08-24T12:03:43.654Z,61.30
2023-08-24T12:06:15.737Z,61.00
2023-08-24T12:08:47.738Z,60.00
2023-08-24T12:11:15.598Z,59.50
2023-08-24T12:13:50.626Z,59.20
2023-08-24T12:16:18.971Z,58.30
2023-08-24T12:19:01.164Z,58.00
2023-08-24T12:21:29.000Z,59.10
2023-08-24T12:24:07.498Z,59.00
2023-08-24T12:26:37.930Z,58.60
2023-08-24T12:29:09.107Z,59.90
2023-08-24T12:31:37.365Z,59.40
2023-08-24T12:34:11.894Z,59.30
2023-08-24T12:36:40.358Z,59.30
2023-08-24T12:39:08.987Z,59.20
2023-08-24T12:41:36.037Z,60.40
2023-08-24T12:44:06.491Z,60.10
2023-08-24T12:46:38.411Z,60.60
2023-08-24T12:49:05.487Z,61.50
2023-08-24T12:51:32.451Z,60.50
2023-08-24T12:53:59.257Z,59.60
2023-08-24T12:56:26.219Z,60.00
2023-08-24T12:58:53.300Z,59.10
2023-08-24T13:01:20.218Z,59.00
2023-08-24T13:03:47.048Z,58.70
2023-08-24T13:06:24.335Z,58.00
2023-08-24T13:08:53.749Z,57.70
2023-08-24T13:11:20.830Z,57.30
2023-08-24T13:13:47.676Z,57.90
2023-08-24T13:16:15.034Z,57.50
2023-08-24T13:18:43.029Z,56.60
2023-08-24T13:21:09.874Z,55.20
2023-08-24T13:23:36.864Z,55.80
2023-08-24T13:26:03.694Z,55.70
2023-08-24T13:28:30.935Z,56.40
2023-08-24T13:30:58.033Z,56.60
2023-08-24T13:33:24.974Z,57.50
2023-08-24T13:35:51.790Z,57.60
2023-08-24T13:38:18.991Z,57.80
2023-08-24T13:40:47.458Z,57.70
2023-08-24T13:43:17.168Z,57.80
2023-08-24T13:45:44.279Z,58.10
2023-08-24T13:48:11.320Z,58.50
2023-08-24T13:50:38.421Z,57.50
2023-08-24T13:53:05.283Z,57.20
2023-08-24T13:55:33.345Z,57.50
2023-08-24T13:58:00.332Z,57.00
2023-08-24T14:00:27.713Z,57.90
2023-08-24T14:02:55.050Z,58.40
2023-08-24T14:05:22.586Z,57.80
2023-08-24T14:07:50.162Z,58.70
2023-08-24T14:10:17.140Z,59.10
2023-08-24T14:12:43.997Z,59.70
2023-08-24T14:15:12.316Z,60.00
2023-08-24T14:17:39.819Z,60.40
2023-08-24T14:20:07.381Z,60.80
2023-08-24T14:22:34.437Z,60.60
2023-08-24T14:25:01.817Z,61.20
2023-08-24T14:27:28.639Z,62.10
2023-08-24T14:29:55.553Z,61.20
2023-08-24T14:32:23.936Z,61.10
2023-08-24T14:34:51.049Z,61.20
2023-08-24T14:37:17.939Z,61.10
2023-08-24T14:39:44.771Z,61.00
2023-08-24T14:42:11.575Z,60.60
2023-08-24T14:44:38.566Z,60.80
2023-08-24T14:47:05.722Z,61.00
2023-08-24T14:49:33.464Z,60.00
2023-08-24T14:52:00.320Z,59.60
2023-08-24T14:54:27.119Z,59.60
2023-08-24T14:56:53.943Z,59.90
2023-08-24T14:59:20.730Z,60.00
2023-08-24T15:01:47.636Z,60.40
2023-08-24T15:04:14.669Z,60.80
2023-08-24T15:06:41.531Z,61.00
2023-08-24T15:09:08.728Z,61.00
2023-08-24T15:11:35.666Z,60.80
2023-08-24T15:14:02.524Z,60.80
2023-08-24T15:16:29.370Z,60.70
2023-08-24T15:18:56.194Z,60.80
2023-08-24T15:21:23.114Z,61.20
2023-08-24T15:23:49.955Z,61.70
2023-08-24T15:26:16.799Z,61.30
2023-08-24T15:29:08.795Z,61.20
2023-08-24T15:31:35.657Z,60.40
2023-08-24T15:34:02.617Z,61.10
2023-08-24T15:36:29.690Z,61.50
2023-08-24T15:38:56.504Z,61.00
2023-08-24T15:41:23.915Z,60.70
2023-08-24T15:43:50.926Z,61.30
2023-08-24T15:46:17.917Z,60.80
2023-08-24T15:48:44.990Z,60.50
2023-08-24T15:51:12.152Z,60.50
2023-08-24T15:53:39.159Z,59.70
2023-08-24T15:56:06.063Z,59.70
2023-08-24T15:58:32.922Z,59.40
2023-08-24T16:00:59.765Z,59.70
2023-08-24T16:03:26.756Z,58.80
2023-08-24T16:05:58.924Z,59.00
2023-08-24T16:08:25.949Z,59.00
2023-08-24T16:10:58.010Z,59.10
2023-08-24T16:13:26.230Z,60.00
2023-08-24T16:15:53.561Z,60.30
2023-08-24T16:18:27.746Z,60.30
2023-08-24T16:20:54.956Z,60.70
2023-08-24T16:23:22.211Z,60.70
2023-08-24T16:25:49.482Z,60.70
2023-08-24T16:28:16.434Z,60.60
2023-08-24T16:30:47.001Z,60.60
2023-08-24T16:33:13.833Z,60.90
2023-08-24T16:35:41.096Z,62.10
2023-08-24T16:38:08.023Z,61.30
2023-08-24T16:40:35.525Z,61.10
2023-08-24T16:43:02.400Z,61.50
2023-08-24T16:45:29.889Z,61.80
2023-08-24T16:47:56.915Z,61.60
2023-08-24T16:50:24.002Z,62.00
2023-08-24T16:52:50.890Z,62.00
2023-08-24T16:55:17.801Z,62.00
2023-08-24T16:57:45.765Z,62.40
2023-08-24T17:00:13.839Z,62.30
2023-08-24T17:02:41.637Z,62.60
2023-08-24T17:05:08.882Z,62.60
2023-08-24T17:07:39.937Z,62.70
2023-08-24T17:10:08.548Z,62.90
2023-08-24T17:12:36.223Z,62.80
2023-08-24T17:15:04.158Z,62.30
2023-08-24T17:17:31.341Z,62.30
2023-08-24T17:19:58.235Z,62.60
2023-08-24T17:22:25.235Z,62.40
2023-08-24T17:24:52.238Z,62.10
2023-08-24T17:27:19.168Z,62.20
2023-08-24T17:29:46.119Z,62.20
2023-08-24T17:32:13.001Z,62.40
2023-08-24T17:34:40.148Z,62.60
2023-08-24T17:37:07.000Z,62.40
2023-08-24T17:39:33.864Z,62.50
2023-08-24T17:42:00.666Z,62.50
2023-08-24T17:44:30.972Z,62.70
2023-08-24T17:46:57.910Z,62.80
2023-08-24T17:49:24.958Z,62.90
2023-08-24T17:51:52.027Z,63.00
2023-08-24T17:54:18.962Z,63.00
2023-08-24T17:56:45.920Z,63.00
2023-08-24T17:59:12.866Z,63.30
2023-08-24T18:01:39.816Z,63.50
2023-08-24T18:04:06.819Z,63.60
2023-08-24T18:06:33.631Z,63.50
2023-08-24T18:09:01.189Z,63.50
2023-08-24T18:11:28.218Z,63.60
2023-08-24T18:13:56.945Z,63.60
2023-08-24T18:16:24.043Z,63.80
2023-08-24T18:18:50.895Z,63.80
2023-08-24T18:21:17.806Z,64.10
2023-08-24T18:23:44.691Z,64.30
2023-08-24T18:26:11.713Z,64.50
2023-08-24T18:28:40.123Z,64.50
2023-08-24T18:31:07.173Z,64.50
2023-08-24T18:33:34.074Z,64.60
2023-08-24T18:36:00.906Z,64.60
2023-08-24T18:38:29.372Z,64.60
2023-08-24T18:40:56.726Z,64.90
2023-08-24T18:43:23.621Z,65.00
2023-08-24T18:46:03.969Z,65.00
2023-08-24T18:48:32.068Z,65.10
2023-08-24T18:50:59.129Z,65.50
2023-08-24T18:53:26.322Z,65.60
2023-08-24T18:55:55.397Z,65.60
2023-08-24T18:58:22.485Z,65.60
2023-08-24T19:00:49.432Z,66.00
2023-08-24T19:03:16.370Z,65.90
2023-08-24T19:05:44.859Z,65.90
2023-08-24T19:08:13.285Z,65.90
2023-08-24T19:10:40.240Z,66.00
2023-08-24T19:13:07.300Z,66.00
2023-08-24T19:15:34.192Z,66.10
2023-08-24T19:18:01.053Z,66.20
2023-08-24T19:20:28.007Z,66.30
2023-08-24T19:22:54.814Z,66.30
2023-08-24T19:25:21.765Z,66.40
2023-08-24T19:27:48.600Z,66.40
2023-08-24T19:30:15.498Z,66.50
2023-08-24T19:32:42.423Z,66.90
2023-08-24T19:35:10.717Z,67.70
2023-08-24T19:37:37.952Z,68.00
2023-08-24T19:40:07.196Z,68.30
2023-08-24T19:42:34.104Z,68.00
2023-08-24T19:45:02.073Z,67.60
2023-08-24T19:47:29.030Z,67.50
2023-08-24T19:49:56.905Z,67.50
2023-08-24T19:52:23.736Z,67.50
2023-08-24T19:54:51.065Z,67.70
2023-08-24T19:57:18.280Z,67.70
2023-08-24T19:59:45.058Z,67.80
2023-08-24T20:02:12.081Z,68.10
2023-08-24T20:04:40.072Z,68.30
2023-08-24T20:07:07.041Z,68.80
2023-08-24T20:09:34.849Z,68.80
2023-08-24T20:12:01.811Z,68.90
2023-08-24T20:14:28.882Z,69.20
2023-08-24T20:16:56.043Z,69.50
2023-08-24T20:19:22.876Z,69.60
2023-08-24T20:21:49.962Z,70.00
2023-08-24T20:24:16.817Z,70.30
2023-08-24T20:26:43.760Z,70.30
2023-08-24T20:29:10.644Z,70.20
2023-08-24T20:31:38.048Z,70.60
2023-08-24T20:34:05.109Z,71.00
2023-08-24T20:36:32.095Z,71.00
2023-08-24T20:38:58.912Z,71.50
2023-08-24T20:41:25.754Z,71.50
2023-08-24T20:43:52.740Z,71.50
2023-08-24T20:46:20.330Z,71.40
2023-08-24T20:48:47.369Z,71.30
2023-08-24T20:51:14.606Z,71.40
2023-08-24T20:53:41.454Z,71.30
2023-08-24T20:56:09.554Z,71.40
2023-08-24T20:58:36.516Z,71.50
2023-08-24T21:01:07.400Z,71.50
2023-08-24T21:03:34.807Z,71.60
2023-08-24T21:06:02.787Z,71.90
2023-08-24T21:08:32.738Z,72.20
2023-08-24T21:11:00.210Z,72.70
2023-08-24T21:13:27.173Z,73.00
2023-08-24T21:15:58.337Z,73.20
2023-08-24T21:18:25.307Z,73.40
2023-08-24T21:20:58.207Z,73.60
2023-08-24T21:23:25.402Z,73.80
2023-08-24T21:25:52.281Z,73.90
2023-08-24T21:28:19.185Z,73.90
2023-08-24T21:30:46.245Z,73.90
2023-08-24T21:33:13.185Z,73.90
2023-08-24T21:35:40.176Z,74.10
2023-08-24T21:38:06.992Z,74.60
2023-08-24T21:40:33.901Z,74.70
2023-08-24T21:43:03.678Z,74.90
2023-08-24T21:45:30.484Z,75.20
2023-08-24T21:47:57.702Z,75.50
2023-08-24T21:50:25.499Z,75.80
2023-08-24T21:52:52.682Z,76.20
2023-08-24T21:55:19.513Z,76.50
2023-08-24T21:57:46.345Z,76.50
2023-08-24T22:00:14.433Z,76.20
2023-08-24T22:02:41.782Z,76.00
2023-08-24T22:05:09.309Z,75.60
2023-08-24T22:07:36.884Z,75.50
2023-08-24T22:10:04.794Z,75.20
2023-08-24T22:12:31.674Z,75.10
2023-08-24T22:14:58.715Z,74.90
2023-08-24T22:17:25.852Z,74.90
2023-08-24T22:19:52.753Z,74.70
2023-08-24T22:22:21.977Z,74.50
2023-08-24T22:24:49.170Z,74.40
2023-08-24T22:27:16.135Z,74.20
2023-08-24T22:29:43.170Z,74.20
2023-08-24T22:32:12.772Z,74.00
2023-08-24T22:34:40.453Z,73.40
2023-08-24T22:37:07.331Z,73.60
2023-08-24T22:39:34.197Z,73.70
2023-08-24T22:42:01.267Z,73.60
2023-08-24T22:44:28.115Z,73.40
2023-08-24T22:46:55.013Z,73.50
2023-08-24T22:49:21.988Z,73.50
2023-08-24T22:51:48.836Z,73.50
2023-08-24T22:54:17.710Z,73.40
2023-08-24T22:56:45.128Z,73.50
2023-08-24T22:59:12.713Z,73.20
2023-08-24T23:01:39.668Z,73.00
2023-08-24T23:04:06.730Z,72.70
2023-08-24T23:06:55.663Z,72.30
2023-08-24T23:09:23.233Z,72.60
2023-08-24T23:11:51.043Z,72.90
2023-08-24T23:14:21.498Z,72.70
2023-08-24T23:16:49.288Z,72.70
2023-08-24T23:19:16.180Z,73.00
2023-08-24T23:21:43.147Z,73.40
2023-08-24T23:24:36.319Z,73.70
2023-08-24T23:26:56.920Z,73.80
2023-08-24T23:29:24.028Z,74.20
2023-08-24T23:31:50.961Z,74.20
2023-08-24T23:34:18.031Z,74.10
2023-08-24T23:36:45.487Z,74.40
2023-08-24T23:39:12.914Z,74.40
2023-08-24T23:41:39.740Z,74.50
2023-08-24T23:44:06.585Z,74.60
2023-08-24T23:46:33.492Z,74.50
2023-08-24T23:49:00.423Z,74.50
2023-08-24T23:51:27.305Z,74.50
2023-08-24T23:53:55.437Z,74.30
2023-08-24T23:56:22.513Z,74.30
2023-08-24T23:58:51.353Z,74.50
